Summitville, Colorado
Current Conditions -  °F | °C
As of 10:10 PM on Sunday 19 Oct 2014 (Local Time) from KRCV Reporting Station
Overcast Overcast  
Wind Chill: 51°   Ceiling: 8000
Heat Index: 51°   Visibility: 10mi
Dew Point: 38°   Wind: 13mph
Humidity: 61%   Direction: 350°N
Pressure: 30.3"   Gusts: 20mph
Location:  37.6359°N, 106.449°W
Report Text: KRCV 200410Z AUTO 35011G17KT 10SM SCT065 BKN080 OVC090 10/03 A3030 RMK AO2 T01040032
Loading
Personal Weather Stations






























Interactive Weather Map
Tropical Storm Tracking
New forecast layout! Learn more

10-Day Weather Forecast

Advertisements
Track Severe Weather on mobile